sensor_id;sensor_type;location;lat;lon;timestamp;pressure;altitude;pressure_sealevel;temperature;humidity
36630;BME280;36256;42.154;23.002;2022-10-13T00:00:12;97936.91;;;14.11;100.00
36630;BME280;36256;42.154;23.002;2022-10-13T00:02:38;97936.25;;;14.07;100.00
36630;BME280;36256;42.154;23.002;2022-10-13T00:05:05;97937.22;;;14.13;100.00
36630;BME280;36256;42.154;23.002;2022-10-13T00:07:32;97929.81;;;14.07;100.00
36630;BME280;36256;42.154;23.002;2022-10-13T00:09:58;97932.47;;;14.01;100.00
36630;BME280;36256;42.154;23.002;2022-10-13T00:12:25;97925.63;;;14.11;100.00
36630;BME280;36256;42.154;23.002;2022-10-13T00:14:52;97928.06;;;14.00;100.00
36630;BME280;36256;42.154;23.002;2022-10-13T00:17:18;97929.31;;;13.99;100.00
36630;BME280;36256;42.154;23.002;2022-10-13T00:19:45;97921.22;;;14.10;100.00
36630;BME280;36256;42.154;23.002;2022-10-13T00:22:11;97926.88;;;14.10;100.00
36630;BME280;36256;42.154;23.002;2022-10-13T00:24:38;97927.53;;;14.14;100.00
36630;BME280;36256;42.154;23.002;2022-10-13T00:27:05;97929.09;;;14.15;100.00
36630;BME280;36256;42.154;23.002;2022-10-13T00:29:31;97931.91;;;14.15;100.00
36630;BME280;36256;42.154;23.002;2022-10-13T00:31:58;97920.63;;;14.15;100.00
36630;BME280;36256;42.154;23.002;2022-10-13T00:34:24;97914.31;;;14.11;100.00
36630;BME280;36256;42.154;23.002;2022-10-13T00:36:51;97917.78;;;14.15;100.00
36630;BME280;36256;42.154;23.002;2022-10-13T00:39:17;97908.41;;;14.18;100.00
36630;BME280;36256;42.154;23.002;2022-10-13T00:41:44;97908.69;;;14.11;100.00
36630;BME280;36256;42.154;23.002;2022-10-13T00:47:15;97907.06;;;14.01;100.00
36630;BME280;36256;42.154;23.002;2022-10-13T00:49:42;97911.44;;;14.02;100.00
36630;BME280;36256;42.154;23.002;2022-10-13T00:52:09;97902.06;;;14.05;100.00
36630;BME280;36256;42.154;23.002;2022-10-13T00:54:36;97899.25;;;14.05;100.00
36630;BME280;36256;42.154;23.002;2022-10-13T00:57:03;97901.38;;;13.92;100.00
36630;BME280;36256;42.154;23.002;2022-10-13T00:59:31;97899.19;;;13.96;100.00
36630;BME280;36256;42.154;23.002;2022-10-13T01:01:58;97904.25;;;14.01;100.00
36630;BME280;36256;42.154;23.002;2022-10-13T01:04:27;97902.97;;;13.93;100.00
36630;BME280;36256;42.154;23.002;2022-10-13T01:06:54;97896.28;;;13.78;100.00
36630;BME280;36256;42.154;23.002;2022-10-13T01:09:21;97903.81;;;13.81;100.00
36630;BME280;36256;42.154;23.002;2022-10-13T01:25:47;97902.47;;;13.64;100.00
36630;BME280;36256;42.154;23.002;2022-10-13T01:39:16;97903.13;;;13.68;100.00
36630;BME280;36256;42.154;23.002;2022-10-13T01:41:51;97903.38;;;13.61;100.00
36630;BME280;36256;42.154;23.002;2022-10-13T01:46:52;97900.44;;;13.43;100.00
36630;BME280;36256;42.154;23.002;2022-10-13T01:49:23;97904.16;;;13.40;100.00
36630;BME280;36256;42.154;23.002;2022-10-13T01:51:54;97901.91;;;13.35;100.00
36630;BME280;36256;42.154;23.002;2022-10-13T01:54:22;97906.97;;;13.40;100.00
36630;BME280;36256;42.154;23.002;2022-10-13T01:56:52;97903.69;;;13.42;100.00
36630;BME280;36256;42.154;23.002;2022-10-13T01:59:19;97895.00;;;13.49;100.00
36630;BME280;36256;42.154;23.002;2022-10-13T02:12:38;97888.09;;;13.50;100.00
36630;BME280;36256;42.154;23.002;2022-10-13T02:15:12;97884.50;;;13.49;100.00
36630;BME280;36256;42.154;23.002;2022-10-13T02:17:41;97880.44;;;13.50;100.00
36630;BME280;36256;42.154;23.002;2022-10-13T02:20:09;97880.44;;;13.50;100.00
36630;BME280;36256;42.154;23.002;2022-10-13T02:22:40;97884.38;;;13.53;100.00
36630;BME280;36256;42.154;23.002;2022-10-13T02:25:09;97885.28;;;13.50;100.00
36630;BME280;36256;42.154;23.002;2022-10-13T02:27:35;97879.78;;;13.46;100.00
36630;BME280;36256;42.154;23.002;2022-10-13T02:30:03;97871.91;;;13.41;100.00
36630;BME280;36256;42.154;23.002;2022-10-13T02:32:30;97871.25;;;13.37;100.00
36630;BME280;36256;42.154;23.002;2022-10-13T02:34:57;97869.94;;;13.29;100.00
36630;BME280;36256;42.154;23.002;2022-10-13T02:37:23;97866.53;;;13.34;100.00
36630;BME280;36256;42.154;23.002;2022-10-13T02:39:51;97871.13;;;13.41;100.00
36630;BME280;36256;42.154;23.002;2022-10-13T02:42:18;97863.31;;;13.45;100.00
36630;BME280;36256;42.154;23.002;2022-10-13T02:44:45;97856.56;;;13.42;100.00
36630;BME280;36256;42.154;23.002;2022-10-13T02:47:11;97860.69;;;13.50;100.00
36630;BME280;36256;42.154;23.002;2022-10-13T02:49:38;97864.13;;;13.45;100.00
36630;BME280;36256;42.154;23.002;2022-10-13T02:52:05;97861.88;;;13.40;100.00
36630;BME280;36256;42.154;23.002;2022-10-13T02:54:31;97851.19;;;13.35;100.00
36630;BME280;36256;42.154;23.002;2022-10-13T02:56:58;97859.00;;;13.31;100.00
36630;BME280;36256;42.154;23.002;2022-10-13T02:59:24;97866.53;;;13.34;100.00
36630;BME280;36256;42.154;23.002;2022-10-13T03:01:51;97856.81;;;13.35;100.00
36630;BME280;36256;42.154;23.002;2022-10-13T03:04:18;97856.38;;;13.36;100.00
36630;BME280;36256;42.154;23.002;2022-10-13T03:06:44;97858.41;;;13.36;100.00
36630;BME280;36256;42.154;23.002;2022-10-13T03:09:11;97863.25;;;13.35;100.00
36630;BME280;36256;42.154;23.002;2022-10-13T03:11:37;97859.94;;;13.28;100.00
36630;BME280;36256;42.154;23.002;2022-10-13T03:14:04;97870.34;;;13.40;100.00
36630;BME280;36256;42.154;23.002;2022-10-13T03:16:30;97859.63;;;13.35;100.00
36630;BME280;36256;42.154;23.002;2022-10-13T03:18:57;97867.34;;;13.34;100.00
36630;BME280;36256;42.154;23.002;2022-10-13T03:21:24;97876.38;;;13.29;100.00
36630;BME280;36256;42.154;23.002;2022-10-13T03:23:50;97879.91;;;13.21;100.00
36630;BME280;36256;42.154;23.002;2022-10-13T03:26:17;97873.41;;;13.11;100.00
36630;BME280;36256;42.154;23.002;2022-10-13T03:28:50;97876.09;;;13.15;100.00
36630;BME280;36256;42.154;23.002;2022-10-13T03:31:17;97882.72;;;13.21;100.00
36630;BME280;36256;42.154;23.002;2022-10-13T03:33:44;97880.09;;;13.26;100.00
36630;BME280;36256;42.154;23.002;2022-10-13T03:36:11;97881.28;;;13.38;100.00
36630;BME280;36256;42.154;23.002;2022-10-13T03:38:41;97879.38;;;13.35;100.00
36630;BME280;36256;42.154;23.002;2022-10-13T03:41:11;97870.91;;;13.35;100.00
36630;BME280;36256;42.154;23.002;2022-10-13T03:43:40;97869.44;;;13.43;100.00
36630;BME280;36256;42.154;23.002;2022-10-13T03:46:09;97873.47;;;13.42;100.00
36630;BME280;36256;42.154;23.002;2022-10-13T03:48:36;97886.13;;;13.37;100.00
36630;BME280;36256;42.154;23.002;2022-10-13T03:51:14;97882.72;;;13.43;100.00
36630;BME280;36256;42.154;23.002;2022-10-13T03:53:41;97874.13;;;13.46;100.00
36630;BME280;36256;42.154;23.002;2022-10-13T03:56:11;97877.03;;;13.55;100.00
36630;BME280;36256;42.154;23.002;2022-10-13T03:58:39;97878.88;;;13.49;100.00
36630;BME280;36256;42.154;23.002;2022-10-13T04:01:06;97873.34;;;13.46;100.00
36630;BME280;36256;42.154;23.002;2022-10-13T04:03:33;97867.06;;;13.42;100.00
36630;BME280;36256;42.154;23.002;2022-10-13T04:06:01;97881.16;;;13.42;100.00
36630;BME280;36256;42.154;23.002;2022-10-13T04:08:28;97866.53;;;13.34;100.00
36630;BME280;36256;42.154;23.002;2022-10-13T04:11:04;97872.19;;;13.34;100.00
36630;BME280;36256;42.154;23.002;2022-10-13T04:13:31;97876.78;;;13.41;100.00
36630;BME280;36256;42.154;23.002;2022-10-13T04:16:02;97867.19;;;13.38;100.00
36630;BME280;36256;42.154;23.002;2022-10-13T04:18:28;97876.56;;;13.35;100.00
36630;BME280;36256;42.154;23.002;2022-10-13T04:20:55;97868.88;;;13.35;100.00
36630;BME280;36256;42.154;23.002;2022-10-13T04:23:22;97872.25;;;13.43;100.00
36630;BME280;36256;42.154;23.002;2022-10-13T04:25:48;97867.84;;;13.42;100.00
36630;BME280;36256;42.154;23.002;2022-10-13T04:28:15;97871.91;;;13.41;100.00
36630;BME280;36256;42.154;23.002;2022-10-13T04:30:42;97864.44;;;13.47;100.00
36630;BME280;36256;42.154;23.002;2022-10-13T04:33:14;97870.66;;;13.42;100.00
36630;BME280;36256;42.154;23.002;2022-10-13T04:35:41;97867.59;;;13.49;100.00
36630;BME280;36256;42.154;23.002;2022-10-13T04:38:07;97871.63;;;13.48;100.00
36630;BME280;36256;42.154;23.002;2022-10-13T04:40:34;97874.66;;;13.54;100.00
36630;BME280;36256;42.154;23.002;2022-10-13T04:43:01;97873.59;;;13.60;100.00
36630;BME280;36256;42.154;23.002;2022-10-13T04:45:27;97875.19;;;13.61;100.00
36630;BME280;36256;42.154;23.002;2022-10-13T04:47:54;97873.59;;;13.60;100.00
36630;BME280;36256;42.154;23.002;2022-10-13T04:50:21;97876.72;;;13.62;100.00
36630;BME280;36256;42.154;23.002;2022-10-13T04:52:47;97876.47;;;13.69;100.00
36630;BME280;36256;42.154;23.002;2022-10-13T04:55:14;97879.78;;;13.68;100.00
36630;BME280;36256;42.154;23.002;2022-10-13T04:57:41;97875.44;;;13.54;100.00
36630;BME280;36256;42.154;23.002;2022-10-13T05:00:09;97884.22;;;13.56;100.00
36630;BME280;36256;42.154;23.002;2022-10-13T05:02:36;97883.97;;;13.63;100.00
36630;BME280;36256;42.154;23.002;2022-10-13T05:05:03;97877.41;;;13.66;100.00
36630;BME280;36256;42.154;23.002;2022-10-13T05:07:30;97881.41;;;13.56;100.00
36630;BME280;36256;42.154;23.002;2022-10-13T05:09:57;97888.94;;;13.59;100.00
36630;BME280;36256;42.154;23.002;2022-10-13T05:12:24;97887.09;;;13.65;100.00
36630;BME280;36256;42.154;23.002;2022-10-13T05:14:50;97879.13;;;13.64;100.00
36630;BME280;36256;42.154;23.002;2022-10-13T05:17:17;97886.53;;;13.70;100.00
36630;BME280;36256;42.154;23.002;2022-10-13T05:19:43;97886.84;;;13.72;100.00
36630;BME280;36256;42.154;23.002;2022-10-13T05:22:10;97889.06;;;13.77;100.00
36630;BME280;36256;42.154;23.002;2022-10-13T05:24:37;97895.34;;;13.81;100.00
36630;BME280;36256;42.154;23.002;2022-10-13T05:27:12;97894.44;;;13.84;100.00
36630;BME280;36256;42.154;23.002;2022-10-13T05:29:39;97891.94;;;13.86;100.00
36630;BME280;36256;42.154;23.002;2022-10-13T05:32:07;97897.72;;;13.83;100.00
36630;BME280;36256;42.154;23.002;2022-10-13T05:34:33;97897.84;;;13.79;100.00
36630;BME280;36256;42.154;23.002;2022-10-13T05:37:00;97902.19;;;13.71;100.00
36630;BME280;36256;42.154;23.002;2022-10-13T05:39:27;97901.06;;;13.69;100.00
36630;BME280;36256;42.154;23.002;2022-10-13T05:41:54;97908.63;;;13.72;100.00
36630;BME280;36256;42.154;23.002;2022-10-13T05:44:20;97911.59;;;13.68;100.00
36630;BME280;36256;42.154;23.002;2022-10-13T05:46:47;97912.16;;;13.63;100.00
36630;BME280;36256;42.154;23.002;2022-10-13T05:49:13;97912.81;;;13.67;100.00
36630;BME280;36256;42.154;23.002;2022-10-13T05:51:44;97918.31;;;13.71;100.00
36630;BME280;36256;42.154;23.002;2022-10-13T05:56:45;97922.13;;;13.77;100.00
36630;BME280;36256;42.154;23.002;2022-10-13T05:59:16;97928.44;;;13.81;100.00
36630;BME280;36256;42.154;23.002;2022-10-13T06:01:51;97923.88;;;13.83;100.00
36630;BME280;36256;42.154;23.002;2022-10-13T06:04:25;97928.03;;;13.91;100.00
36630;BME280;36256;42.154;23.002;2022-10-13T06:06:55;97928.53;;;13.99;100.00
36630;BME280;36256;42.154;23.002;2022-10-13T06:09:22;97934.03;;;14.02;100.00
36630;BME280;36256;42.154;23.002;2022-10-13T06:11:48;97929.06;;;14.06;100.00
36630;BME280;36256;42.154;23.002;2022-10-13T06:14:15;97928.38;;;14.02;100.00
36630;BME280;36256;42.154;23.002;2022-10-13T06:16:41;97928.53;;;13.99;100.00
36630;BME280;36256;42.154;23.002;2022-10-13T06:19:08;97927.72;;;13.98;100.00
36630;BME280;36256;42.154;23.002;2022-10-13T06:21:35;97929.31;;;13.99;100.00
36630;BME280;36256;42.154;23.002;2022-10-13T06:24:02;97925.19;;;13.91;100.00
36630;BME280;36256;42.154;23.002;2022-10-13T06:26:28;97929.25;;;13.90;100.00
36630;BME280;36256;42.154;23.002;2022-10-13T06:28:55;97926.13;;;13.88;100.00
36630;BME280;36256;42.154;23.002;2022-10-13T06:31:25;97928.69;;;13.95;100.00
36630;BME280;36256;42.154;23.002;2022-10-13T06:33:52;97922.09;;;13.98;100.00
36630;BME280;36256;42.154;23.002;2022-10-13T06:36:18;97924.72;;;13.93;100.00
36630;BME280;36256;42.154;23.002;2022-10-13T06:38:45;97929.06;;;14.06;100.00
36630;BME280;36256;42.154;23.002;2022-10-13T06:41:12;97929.31;;;13.99;100.00
36630;BME280;36256;42.154;23.002;2022-10-13T06:43:39;97933.69;;;14.00;100.00
36630;BME280;36256;42.154;23.002;2022-10-13T06:46:07;97930.63;;;14.07;100.00
36630;BME280;36256;42.154;23.002;2022-10-13T06:48:34;97932.06;;;14.12;100.00
36630;BME280;36256;42.154;23.002;2022-10-13T06:51:02;97929.41;;;14.17;100.00
36630;BME280;36256;42.154;23.002;2022-10-13T06:53:29;97925.03;;;14.26;100.00
36630;BME280;36256;42.154;23.002;2022-10-13T06:55:57;97931.00;;;14.18;100.00
36630;BME280;36256;42.154;23.002;2022-10-13T06:58:24;97928.50;;;14.21;100.00
36630;BME280;36256;42.154;23.002;2022-10-13T07:00:50;97933.84;;;14.28;100.00
36630;BME280;36256;42.154;23.002;2022-10-13T07:03:17;97930.13;;;14.31;100.00
36630;BME280;36256;42.154;23.002;2022-10-13T07:05:44;97926.38;;;14.34;100.00
36630;BME280;36256;42.154;23.002;2022-10-13T07:08:11;97926.88;;;14.41;100.00
36630;BME280;36256;42.154;23.002;2022-10-13T07:10:38;97915.16;;;14.52;100.00
36630;BME280;36256;42.154;23.002;2022-10-13T07:13:05;97919.69;;;14.49;100.00
36630;BME280;36256;42.154;23.002;2022-10-13T07:15:31;97916.88;;;14.49;100.00
36630;BME280;36256;42.154;23.002;2022-10-13T07:17:58;97918.31;;;14.54;100.00
36630;BME280;36256;42.154;23.002;2022-10-13T07:20:25;97919.56;;;14.62;100.00
36630;BME280;36256;42.154;23.002;2022-10-13T07:22:52;97925.72;;;14.69;100.00
36630;BME280;36256;42.154;23.002;2022-10-13T07:25:19;97918.38;;;14.72;100.00
36630;BME280;36256;42.154;23.002;2022-10-13T07:27:46;97917.41;;;14.75;100.00
36630;BME280;36256;42.154;23.002;2022-10-13T07:30:12;97923.38;;;14.77;99.37
36630;BME280;36256;42.154;23.002;2022-10-13T07:32:39;97915.19;;;14.70;99.08
36630;BME280;36256;42.154;23.002;2022-10-13T07:35:08;97915.53;;;14.72;100.00
36630;BME280;36256;42.154;23.002;2022-10-13T07:37:36;97919.28;;;14.69;99.28
36630;BME280;36256;42.154;23.002;2022-10-13T07:40:04;97919.56;;;14.62;99.48
36630;BME280;36256;42.154;23.002;2022-10-13T07:42:31;97913.44;;;14.54;99.10
36630;BME280;36256;42.154;23.002;2022-10-13T07:44:58;97912.84;;;14.68;99.10
36630;BME280;36256;42.154;23.002;2022-10-13T07:47:25;97912.72;;;14.72;97.03
36630;BME280;36256;42.154;23.002;2022-10-13T07:49:51;97911.63;;;14.78;95.91
36630;BME280;36256;42.154;23.002;2022-10-13T07:52:20;97918.38;;;14.81;95.73
36630;BME280;36256;42.154;23.002;2022-10-13T07:54:49;97913.50;;;14.81;96.93
36630;BME280;36256;42.154;23.002;2022-10-13T07:57:15;97913.38;;;14.94;94.78
36630;BME280;36256;42.154;23.002;2022-10-13T07:59:42;97916.53;;;14.96;94.78
36630;BME280;36256;42.154;23.002;2022-10-13T08:02:09;97913.22;;;14.98;98.26
36630;BME280;36256;42.154;23.002;2022-10-13T08:04:36;97910.56;;;15.03;94.19
36630;BME280;36256;42.154;23.002;2022-10-13T08:07:04;97915.59;;;15.08;92.35
36630;BME280;36256;42.154;23.002;2022-10-13T08:09:31;97915.91;;;15.10;94.33
36630;BME280;36256;42.154;23.002;2022-10-13T08:11:59;97919.19;;;15.00;90.00
36630;BME280;36256;42.154;23.002;2022-10-13T08:14:27;97915.13;;;15.01;90.52
36630;BME280;36256;42.154;23.002;2022-10-13T08:16:55;97915.59;;;14.99;91.50
36630;BME280;36256;42.154;23.002;2022-10-13T08:19:22;97912.13;;;15.04;94.34
36630;BME280;36256;42.154;23.002;2022-10-13T08:21:51;97928.16;;;15.07;95.25
36630;BME280;36256;42.154;23.002;2022-10-13T08:24:25;97918.13;;;15.15;95.09
36630;BME280;36256;42.154;23.002;2022-10-13T08:26:52;97915.31;;;15.24;97.63
36630;BME280;36256;42.154;23.002;2022-10-13T08:29:19;97912.31;;;15.19;93.53
36630;BME280;36256;42.154;23.002;2022-10-13T08:31:48;97911.22;;;15.25;92.57
36630;BME280;36256;42.154;23.002;2022-10-13T08:34:21;97905.56;;;15.25;92.81
36630;BME280;36256;42.154;23.002;2022-10-13T08:36:48;97905.88;;;15.36;90.06
36630;BME280;36256;42.154;23.002;2022-10-13T08:39:19;97908.84;;;15.42;89.87
36630;BME280;36256;42.154;23.002;2022-10-13T08:41:46;97898.97;;;15.46;88.87
36630;BME280;36256;42.154;23.002;2022-10-13T08:49:39;97901.34;;;15.66;92.10
36630;BME280;36256;42.154;23.002;2022-10-13T08:52:10;97889.22;;;15.65;93.58
36630;BME280;36256;42.154;23.002;2022-10-13T08:54:41;97877.28;;;15.80;92.49
36630;BME280;36256;42.154;23.002;2022-10-13T08:57:09;97889.50;;;15.86;91.78
36630;BME280;36256;42.154;23.002;2022-10-13T08:59:36;97881.03;;;15.86;90.98
36630;BME280;36256;42.154;23.002;2022-10-13T09:02:14;97879.94;;;15.83;90.58
36630;BME280;36256;42.154;23.002;2022-10-13T09:04:48;97884.47;;;15.81;89.24
36630;BME280;36256;42.154;23.002;2022-10-13T09:07:28;97885.44;;;15.78;88.75
36630;BME280;36256;42.154;23.002;2022-10-13T09:09:56;97894.25;;;15.70;90.59
36630;BME280;36256;42.154;23.002;2022-10-13T09:12:24;97891.09;;;15.78;91.18
36630;BME280;36256;42.154;23.002;2022-10-13T09:15:06;97878.50;;;15.88;90.06
36630;BME280;36256;42.154;23.002;2022-10-13T09:17:36;97881.34;;;15.88;89.06
36630;BME280;36256;42.154;23.002;2022-10-13T09:22:38;97876.44;;;15.88;89.44
36630;BME280;36256;42.154;23.002;2022-10-13T09:27:50;97872.66;;;15.91;88.84
36630;BME280;36256;42.154;23.002;2022-10-13T09:35:35;97879.84;;;16.10;90.29
36630;BME280;36256;42.154;23.002;2022-10-13T09:38:29;97869.91;;;16.15;90.13
36630;BME280;36256;42.154;23.002;2022-10-13T09:43:40;97881.22;;;16.24;89.39
36630;BME280;36256;42.154;23.002;2022-10-13T09:46:35;97873.34;;;16.28;88.19
36630;BME280;36256;42.154;23.002;2022-10-13T09:49:07;97873.88;;;16.41;89.39
36630;BME280;36256;42.154;23.002;2022-10-13T09:51:46;97862.25;;;16.39;87.48
36630;BME280;36256;42.154;23.002;2022-10-13T09:57:02;97844.06;;;16.64;81.60
36630;BME280;36256;42.154;23.002;2022-10-13T09:59:36;97848.00;;;16.66;80.11
36630;BME280;36256;42.154;23.002;2022-10-13T10:02:19;97839.66;;;16.63;78.57
36630;BME280;36256;42.154;23.002;2022-10-13T10:04:52;97841.34;;;16.69;83.93
36630;BME280;36256;42.154;23.002;2022-10-13T10:07:25;97841.00;;;16.76;83.69
36630;BME280;36256;42.154;23.002;2022-10-13T10:09:56;97843.03;;;16.76;80.66
36630;BME280;36256;42.154;23.002;2022-10-13T10:12:29;97845.28;;;16.72;83.56
36630;BME280;36256;42.154;23.002;2022-10-13T10:14:57;97834.34;;;16.79;82.87
36630;BME280;36256;42.154;23.002;2022-10-13T10:17:40;97837.41;;;16.90;84.69
36630;BME280;36256;42.154;23.002;2022-10-13T10:22:47;97838.84;;;17.09;81.09
36630;BME280;36256;42.154;23.002;2022-10-13T10:30:53;97820.13;;;16.88;83.21
36630;BME280;36256;42.154;23.002;2022-10-13T10:33:58;97822.69;;;17.01;84.13
36630;BME280;36256;42.154;23.002;2022-10-13T10:36:51;97813.09;;;16.98;84.09
36630;BME280;36256;42.154;23.002;2022-10-13T10:42:41;97807.06;;;17.05;84.00
36630;BME280;36256;42.154;23.002;2022-10-13T10:45:30;97801.09;;;17.03;83.86
36630;BME280;36256;42.154;23.002;2022-10-13T10:48:07;97793.19;;;17.07;85.52
36630;BME280;36256;42.154;23.002;2022-10-13T10:50:38;97790.72;;;17.00;86.04
36630;BME280;36256;42.154;23.002;2022-10-13T10:53:11;97781.25;;;17.03;85.21
36630;BME280;36256;42.154;23.002;2022-10-13T10:55:51;97776.41;;;17.18;84.08
36630;BME280;36256;42.154;23.002;2022-10-13T10:58:35;97774.53;;;17.30;86.74
36630;BME280;36256;42.154;23.002;2022-10-13T11:01:18;97769.44;;;17.34;84.74
36630;BME280;36256;42.154;23.002;2022-10-13T11:03:48;97762.91;;;17.43;82.09
36630;BME280;36256;42.154;23.002;2022-10-13T11:08:47;97760.88;;;17.58;82.62
36630;BME280;36256;42.154;23.002;2022-10-13T11:44:02;97709.16;;;17.83;73.52
36630;BME280;36256;42.154;23.002;2022-10-13T11:49:57;97705.44;;;17.91;74.13
36630;BME280;36256;42.154;23.002;2022-10-13T11:58:22;97689.06;;;18.01;72.02
36630;BME280;36256;42.154;23.002;2022-10-13T12:01:04;97672.16;;;18.12;71.46
36630;BME280;36256;42.154;23.002;2022-10-13T12:03:40;97677.72;;;18.21;69.94
36630;BME280;36256;42.154;23.002;2022-10-13T12:08:47;97674.00;;;18.35;68.97
36630;BME280;36256;42.154;23.002;2022-10-13T12:11:36;97674.69;;;18.45;67.87
36630;BME280;36256;42.154;23.002;2022-10-13T12:14:06;97671.44;;;18.52;68.81
36630;BME280;36256;42.154;23.002;2022-10-13T12:16:33;97675.69;;;18.62;67.52
36630;BME280;36256;42.154;23.002;2022-10-13T12:19:28;97666.50;;;18.52;64.68
36630;BME280;36256;42.154;23.002;2022-10-13T12:21:58;97660.88;;;18.38;64.14
36630;BME280;36256;42.154;23.002;2022-10-13T12:24:29;97653.72;;;18.42;66.07
36630;BME280;36256;42.154;23.002;2022-10-13T12:26:56;97646.75;;;18.43;63.36
36630;BME280;36256;42.154;23.002;2022-10-13T12:29:26;97651.47;;;18.46;64.58
36630;BME280;36256;42.154;23.002;2022-10-13T12:31:58;97655.44;;;18.34;67.11
36630;BME280;36256;42.154;23.002;2022-10-13T12:36:57;97654.13;;;18.35;66.58
36630;BME280;36256;42.154;23.002;2022-10-13T12:39:26;97649.88;;;18.25;65.75
36630;BME280;36256;42.154;23.002;2022-10-13T12:41:54;97655.00;;;18.21;70.05
36630;BME280;36256;42.154;23.002;2022-10-13T12:44:26;97662.31;;;18.28;71.37
36630;BME280;36256;42.154;23.002;2022-10-13T12:46:55;97660.78;;;18.47;68.15
36630;BME280;36256;42.154;23.002;2022-10-13T12:49:27;97648.34;;;18.44;69.92
36630;BME280;36256;42.154;23.002;2022-10-13T12:54:36;97648.34;;;18.44;70.55
36630;BME280;36256;42.154;23.002;2022-10-13T12:57:15;97649.13;;;18.45;69.61
36630;BME280;36256;42.154;23.002;2022-10-13T12:59:44;97657.56;;;18.39;69.25
36630;BME280;36256;42.154;23.002;2022-10-13T13:02:26;97653.16;;;18.38;68.92
36630;BME280;36256;42.154;23.002;2022-10-13T13:04:53;97663.44;;;18.36;68.58
36630;BME280;36256;42.154;23.002;2022-10-13T13:07:26;97663.44;;;18.36;69.49
36630;BME280;36256;42.154;23.002;2022-10-13T13:10:15;97656.97;;;18.35;69.36
36630;BME280;36256;42.154;23.002;2022-10-13T13:12:43;97655.28;;;18.23;69.52
36630;BME280;36256;42.154;23.002;2022-10-13T13:17:53;97657.03;;;18.21;72.43
36630;BME280;36256;42.154;23.002;2022-10-13T13:20:28;97646.47;;;18.21;72.41
36630;BME280;36256;42.154;23.002;2022-10-13T13:22:55;97648.88;;;18.08;73.00
36630;BME280;36256;42.154;23.002;2022-10-13T13:25:22;97649.59;;;18.03;74.00
36630;BME280;36256;42.154;23.002;2022-10-13T13:27:50;97657.38;;;18.08;74.58
36630;BME280;36256;42.154;23.002;2022-10-13T13:30:19;97653.84;;;18.13;74.34
36630;BME280;36256;42.154;23.002;2022-10-13T13:32:47;97647.47;;;18.18;74.17
36630;BME280;36256;42.154;23.002;2022-10-13T13:35:13;97640.50;;;18.19;72.77
36630;BME280;36256;42.154;23.002;2022-10-13T13:37:42;97647.66;;;18.15;75.20
36630;BME280;36256;42.154;23.002;2022-10-13T13:40:16;97641.06;;;18.23;74.48
36630;BME280;36256;42.154;23.002;2022-10-13T13:42:43;97645.19;;;18.22;75.23
36630;BME280;36256;42.154;23.002;2022-10-13T13:45:14;97640.78;;;18.21;75.77
36630;BME280;36256;42.154;23.002;2022-10-13T13:47:41;97635.53;;;18.14;76.26
36630;BME280;36256;42.154;23.002;2022-10-13T13:50:21;97634.75;;;18.14;78.36
36630;BME280;36256;42.154;23.002;2022-10-13T13:52:48;97633.00;;;18.16;76.29
36630;BME280;36256;42.154;23.002;2022-10-13T13:55:15;97631.19;;;18.19;76.77
36630;BME280;36256;42.154;23.002;2022-10-13T13:57:42;97625.31;;;18.22;76.00
36630;BME280;36256;42.154;23.002;2022-10-13T14:00:11;97618.84;;;18.22;76.73
36630;BME280;36256;42.154;23.002;2022-10-13T14:02:38;97615.16;;;18.16;77.64
36630;BME280;36256;42.154;23.002;2022-10-13T14:05:05;97605.91;;;18.21;77.90
36630;BME280;36256;42.154;23.002;2022-10-13T14:07:33;97610.38;;;18.27;76.10
36630;BME280;36256;42.154;23.002;2022-10-13T14:09:59;97612.75;;;18.29;75.79
36630;BME280;36256;42.154;23.002;2022-10-13T14:12:31;97611.41;;;18.24;75.93
36630;BME280;36256;42.154;23.002;2022-10-13T14:14:58;97608.38;;;18.33;75.49
36630;BME280;36256;42.154;23.002;2022-10-13T14:17:26;97620.53;;;18.34;75.38
36630;BME280;36256;42.154;23.002;2022-10-13T14:19:53;97605.72;;;18.24;75.33
36630;BME280;36256;42.154;23.002;2022-10-13T14:22:20;97613.72;;;18.26;76.96
36630;BME280;36256;42.154;23.002;2022-10-13T14:24:48;97627.66;;;18.24;79.58
36630;BME280;36256;42.154;23.002;2022-10-13T14:27:14;97625.31;;;18.22;78.36
36630;BME280;36256;42.154;23.002;2022-10-13T14:29:41;97618.63;;;18.25;77.54
36630;BME280;36256;42.154;23.002;2022-10-13T14:32:08;97618.47;;;18.14;74.82
36630;BME280;36256;42.154;23.002;2022-10-13T14:34:34;97614.78;;;18.08;75.88
36630;BME280;36256;42.154;23.002;2022-10-13T14:37:01;97619.44;;;18.06;76.98
36630;BME280;36256;42.154;23.002;2022-10-13T14:39:28;97618.19;;;18.12;76.67
36630;BME280;36256;42.154;23.002;2022-10-13T14:41:54;97606.28;;;18.08;75.86
36630;BME280;36256;42.154;23.002;2022-10-13T14:44:21;97606.84;;;18.12;75.85
36630;BME280;36256;42.154;23.002;2022-10-13T14:46:47;97612.53;;;18.12;76.30
36630;BME280;36256;42.154;23.002;2022-10-13T14:49:14;97606.84;;;18.12;76.34
36630;BME280;36256;42.154;23.002;2022-10-13T14:51:41;97602.13;;;18.03;76.33
36630;BME280;36256;42.154;23.002;2022-10-13T14:54:08;97601.78;;;18.01;76.71
36630;BME280;36256;42.154;23.002;2022-10-13T14:56:35;97603.31;;;17.97;76.64
36630;BME280;36256;42.154;23.002;2022-10-13T14:59:04;97602.94;;;17.89;77.83
36630;BME280;36256;42.154;23.002;2022-10-13T15:01:30;97603.94;;;17.86;78.06
36630;BME280;36256;42.154;23.002;2022-10-13T15:04:01;97603.16;;;17.86;77.86
36630;BME280;36256;42.154;23.002;2022-10-13T15:06:28;97606.97;;;17.83;78.86